createdAt,value
2018-06-21T00:00:12.243Z,83.46
2018-06-21T00:02:40.605Z,84.36
2018-06-21T00:05:08.957Z,84.48
2018-06-21T00:07:37.322Z,85.70
2018-06-21T00:10:06.442Z,86.11
2018-06-21T00:12:34.804Z,86.29
2018-06-21T00:15:03.206Z,86.20
2018-06-21T00:17:31.605Z,86.99
2018-06-21T00:19:59.961Z,86.79
2018-06-21T00:22:29.388Z,86.25
2018-06-21T00:24:57.737Z,86.30
2018-06-21T00:27:26.102Z,87.41
2018-06-21T00:29:54.470Z,87.94
2018-06-21T00:32:22.830Z,88.26
2018-06-21T00:34:51.204Z,88.01
2018-06-21T00:37:19.570Z,89.07
2018-06-21T00:39:47.924Z,89.84
2018-06-21T00:42:16.277Z,89.93
2018-06-21T00:44:44.671Z,90.33
2018-06-21T00:47:13.033Z,91.02
2018-06-21T00:49:41.397Z,91.49
2018-06-21T00:52:10.198Z,90.83
2018-06-21T00:54:38.549Z,92.16
2018-06-21T00:57:07.925Z,92.41
2018-06-21T00:59:37.162Z,93.22
2018-06-21T01:02:05.543Z,92.30
2018-06-21T01:04:33.883Z,93.50
2018-06-21T01:07:02.247Z,93.65
2018-06-21T01:09:30.665Z,94.44
2018-06-21T01:11:59.018Z,94.52
2018-06-21T01:14:27.384Z,94.64
2018-06-21T01:16:55.924Z,94.95
2018-06-21T01:19:24.386Z,94.49
2018-06-21T01:21:52.793Z,95.08
2018-06-21T01:24:23.080Z,95.86
2018-06-21T01:26:52.380Z,95.66
2018-06-21T01:29:21.722Z,95.18
2018-06-21T01:31:50.085Z,95.04
2018-06-21T01:34:19.318Z,94.82
2018-06-21T01:36:47.671Z,95.11
2018-06-21T01:39:16.027Z,95.44
2018-06-21T01:41:44.391Z,95.75
2018-06-21T01:44:12.757Z,95.51
2018-06-21T01:46:41.114Z,95.62
2018-06-21T01:49:10.466Z,95.94
2018-06-21T01:51:39.498Z,96.01
2018-06-21T01:54:08.690Z,95.84
2018-06-21T01:56:38.148Z,96.07
2018-06-21T01:59:06.575Z,96.50
2018-06-21T02:01:34.927Z,96.85
2018-06-21T02:04:03.300Z,95.93
2018-06-21T02:06:32.671Z,95.27
2018-06-21T02:09:02.043Z,94.15
2018-06-21T02:11:31.501Z,94.91
2018-06-21T02:14:00.827Z,95.39
2018-06-21T02:16:30.119Z,95.14
2018-06-21T02:18:59.393Z,94.73
2018-06-21T02:21:28.679Z,94.94
2018-06-21T02:23:57.885Z,94.84
2018-06-21T02:26:27.291Z,94.00
2018-06-21T02:28:56.531Z,93.51
2018-06-21T02:31:24.895Z,93.78
2018-06-21T02:33:53.287Z,93.52
2018-06-21T02:36:22.640Z,94.17
2018-06-21T02:38:51.923Z,93.95
2018-06-21T02:41:21.315Z,93.66
2018-06-21T02:43:50.763Z,93.73
2018-06-21T02:46:20.204Z,93.58
2018-06-21T02:48:49.512Z,94.34
2018-06-21T02:51:18.903Z,93.28
2018-06-21T02:53:48.194Z,93.78
2018-06-21T02:56:17.464Z,94.38
2018-06-21T02:58:46.834Z,93.69
2018-06-21T03:01:16.092Z,93.42
2018-06-21T03:03:45.363Z,93.28
2018-06-21T03:06:14.698Z,93.14
2018-06-21T03:08:43.974Z,93.73
2018-06-21T03:11:13.221Z,93.09
2018-06-21T03:13:42.492Z,92.99
2018-06-21T03:16:10.895Z,92.31
2018-06-21T03:18:40.175Z,93.15
2018-06-21T03:21:08.559Z,93.44
2018-06-21T03:23:36.951Z,93.21
2018-06-21T03:26:05.416Z,93.48
2018-06-21T03:28:34.738Z,93.04
2018-06-21T03:31:04.104Z,92.10
2018-06-21T03:33:32.502Z,93.21
2018-06-21T03:36:00.860Z,93.87
2018-06-21T03:38:29.222Z,93.74
2018-06-21T03:40:57.574Z,94.24
2018-06-21T03:43:25.922Z,95.07
2018-06-21T03:45:54.294Z,95.28
2018-06-21T03:48:22.684Z,95.31
2018-06-21T03:50:51.038Z,96.05
2018-06-21T03:53:20.415Z,95.89
2018-06-21T03:55:48.842Z,95.37
2018-06-21T03:58:18.199Z,95.65
2018-06-21T04:00:46.564Z,95.27
2018-06-21T04:03:14.939Z,93.82
2018-06-21T04:05:43.334Z,94.31
2018-06-21T04:08:12.690Z,93.21
2018-06-21T04:10:41.159Z,92.60
2018-06-21T04:13:10.447Z,92.58
2018-06-21T04:15:38.813Z,92.33
2018-06-21T04:18:07.216Z,92.79
2018-06-21T04:20:35.881Z,92.97
2018-06-21T04:23:04.242Z,93.29
2018-06-21T04:25:33.392Z,92.55
2018-06-21T04:28:02.837Z,92.88
2018-06-21T04:30:31.203Z,92.13
2018-06-21T04:32:59.545Z,92.02
2018-06-21T04:35:28.772Z,91.68
2018-06-21T04:37:57.167Z,91.36
2018-06-21T04:40:25.529Z,90.67
2018-06-21T04:42:54.973Z,89.96
2018-06-21T04:45:24.349Z,86.22
2018-06-21T04:47:52.712Z,87.26
2018-06-21T04:50:21.071Z,86.80
2018-06-21T04:52:49.462Z,86.93
2018-06-21T04:55:17.889Z,87.63
2018-06-21T04:57:47.125Z,86.35
2018-06-21T05:00:15.518Z,86.73
2018-06-21T05:02:43.885Z,85.75
2018-06-21T05:05:12.274Z,84.84
2018-06-21T05:07:40.667Z,82.08
2018-06-21T05:10:10.021Z,81.37
2018-06-21T05:12:39.402Z,80.79
2018-06-21T05:15:07.803Z,82.43
2018-06-21T05:17:36.210Z,82.43
2018-06-21T05:20:04.646Z,80.75
2018-06-21T05:22:33.018Z,81.95
2018-06-21T05:25:01.393Z,80.22
2018-06-21T05:27:30.718Z,81.67
2018-06-21T05:29:59.962Z,80.07
2018-06-21T05:32:28.318Z,80.01
2018-06-21T05:34:57.452Z,78.65
2018-06-21T05:37:26.290Z,77.80
2018-06-21T05:39:55.707Z,77.04
2018-06-21T05:42:24.118Z,76.99
2018-06-21T05:44:53.344Z,77.44
2018-06-21T05:47:21.726Z,77.76
2018-06-21T05:49:51.024Z,76.50
2018-06-21T05:52:19.371Z,76.75
2018-06-21T05:54:48.677Z,76.58
2018-06-21T05:57:17.092Z,77.22
2018-06-21T05:59:45.518Z,77.57
2018-06-21T06:02:13.881Z,76.54
2018-06-21T06:04:43.309Z,75.90
2018-06-21T06:07:11.678Z,74.76
2018-06-21T06:09:41.077Z,73.85
2018-06-21T06:12:09.483Z,72.91
2018-06-21T06:14:38.739Z,72.34
2018-06-21T06:17:07.140Z,71.20
2018-06-21T06:19:35.555Z,71.56
2018-06-21T06:22:04.978Z,71.71
2018-06-21T06:24:33.387Z,68.43
2018-06-21T06:27:03.247Z,67.78
2018-06-21T06:29:31.679Z,66.15
2018-06-21T06:32:01.011Z,66.19
2018-06-21T06:34:29.445Z,63.64
2018-06-21T06:36:58.831Z,64.23
2018-06-21T06:39:27.199Z,65.90
2018-06-21T06:41:56.594Z,66.68
2018-06-21T06:44:25.766Z,62.13
2018-06-21T06:46:55.242Z,64.60
2018-06-21T06:49:24.587Z,63.52
2018-06-21T06:51:52.950Z,63.75
2018-06-21T06:54:22.266Z,59.21
2018-06-21T06:56:50.648Z,60.27
2018-06-21T06:59:19.017Z,60.22
2018-06-21T07:01:47.372Z,59.07
2018-06-21T07:04:15.785Z,58.36
2018-06-21T07:06:44.219Z,59.21
2018-06-21T07:09:12.588Z,57.67
2018-06-21T07:11:40.971Z,58.63
2018-06-21T07:14:09.396Z,57.58
2018-06-21T07:16:37.753Z,59.44
2018-06-21T07:19:06.511Z,58.33
2018-06-21T07:21:37.966Z,58.99
2018-06-21T07:24:06.526Z,59.18
2018-06-21T07:26:34.962Z,60.02
2018-06-21T07:29:03.318Z,57.77
2018-06-21T07:31:31.667Z,56.67
2018-06-21T07:34:00.041Z,59.66
2018-06-21T07:36:28.477Z,57.01
2018-06-21T07:38:56.956Z,56.82
2018-06-21T07:41:25.430Z,56.67
2018-06-21T07:43:53.797Z,56.70
2018-06-21T07:46:22.179Z,55.66
2018-06-21T07:48:51.577Z,55.45
2018-06-21T07:51:19.933Z,55.24
2018-06-21T07:53:48.366Z,54.97
2018-06-21T07:56:16.719Z,56.28
2018-06-21T07:58:45.064Z,55.62
2018-06-21T08:01:13.444Z,54.71
2018-06-21T08:03:41.800Z,53.41
2018-06-21T08:06:10.155Z,53.50
2018-06-21T08:08:38.521Z,53.02
2018-06-21T08:11:06.902Z,53.24
2018-06-21T08:13:35.266Z,53.50
2018-06-21T08:16:04.134Z,53.92
2018-06-21T08:18:33.429Z,54.20
2018-06-21T08:21:02.695Z,52.42
2018-06-21T08:23:31.966Z,53.95
2018-06-21T08:26:00.325Z,51.86
2018-06-21T08:28:28.685Z,51.39
2018-06-21T08:30:57.103Z,52.40
2018-06-21T08:33:25.489Z,55.28
2018-06-21T08:35:53.879Z,52.21
2018-06-21T08:38:22.311Z,53.31
2018-06-21T08:40:50.675Z,51.24
2018-06-21T08:43:19.053Z,49.88
2018-06-21T08:45:47.457Z,48.80
2018-06-21T08:48:15.802Z,49.71
2018-06-21T08:50:44.155Z,48.39
2018-06-21T08:53:12.511Z,48.79
2018-06-21T08:55:40.892Z,48.56
2018-06-21T08:58:09.251Z,46.37
2018-06-21T09:00:37.626Z,46.25
2018-06-21T09:03:05.985Z,45.10
2018-06-21T09:05:35.269Z,46.44
2018-06-21T09:08:04.538Z,46.82
2018-06-21T09:10:33.907Z,45.08
2018-06-21T09:13:03.100Z,44.68
2018-06-21T09:15:32.407Z,43.79
2018-06-21T09:18:00.761Z,42.35
2018-06-21T09:20:30.011Z,44.83
2018-06-21T09:22:59.171Z,43.28
2018-06-21T09:25:28.521Z,44.58
2018-06-21T09:27:57.747Z,42.23
2018-06-21T09:30:26.094Z,43.91
2018-06-21T09:32:54.456Z,41.09
2018-06-21T09:35:23.868Z,41.13
2018-06-21T09:38:59.197Z,40.93
2018-06-21T09:41:33.042Z,41.74
2018-06-21T09:44:06.681Z,43.71
2018-06-21T09:46:40.353Z,40.32
2018-06-21T09:49:09.734Z,40.81
2018-06-21T09:51:38.129Z,41.56
2018-06-21T09:54:06.494Z,42.37
2018-06-21T09:56:34.841Z,44.21
2018-06-21T09:59:03.260Z,42.75
2018-06-21T10:01:31.599Z,43.60
2018-06-21T10:03:59.947Z,45.85
2018-06-21T10:06:29.212Z,44.09
2018-06-21T10:08:57.636Z,43.21
2018-06-21T10:11:26.989Z,41.73
2018-06-21T10:13:55.355Z,40.74
2018-06-21T10:16:24.538Z,42.34
2018-06-21T10:18:52.895Z,38.30
2018-06-21T10:21:22.145Z,36.54
2018-06-21T10:23:50.502Z,37.32
2018-06-21T10:26:18.852Z,37.60
2018-06-21T10:28:47.200Z,38.32
2018-06-21T10:31:15.856Z,37.32
2018-06-21T10:33:46.931Z,36.42
2018-06-21T10:36:16.303Z,38.73
2018-06-21T10:38:44.677Z,38.43
2018-06-21T10:41:13.083Z,37.53
2018-06-21T10:43:41.439Z,37.51
2018-06-21T10:46:09.843Z,38.23
2018-06-21T10:48:38.247Z,38.70
2018-06-21T10:51:07.550Z,38.43
2018-06-21T10:53:35.915Z,37.79
2018-06-21T10:56:04.297Z,37.74
2018-06-21T10:58:33.249Z,39.71
2018-06-21T11:01:01.860Z,37.67
2018-06-21T11:03:30.216Z,39.16
2018-06-21T11:05:58.617Z,39.36
2018-06-21T11:08:26.993Z,38.61
2018-06-21T11:10:55.377Z,42.95
2018-06-21T11:13:24.645Z,51.57
2018-06-21T11:15:53.972Z,62.38
2018-06-21T11:18:23.185Z,73.90
2018-06-21T11:20:52.484Z,80.73
2018-06-21T11:23:20.872Z,86.58
2018-06-21T11:25:49.235Z,88.39
2018-06-21T11:28:17.613Z,89.43
2018-06-21T11:30:46.043Z,87.89
2018-06-21T11:33:15.296Z,85.64
2018-06-21T11:35:44.754Z,85.66
2018-06-21T11:38:14.218Z,83.38
2018-06-21T11:40:43.497Z,80.91
2018-06-21T11:43:12.954Z,80.30
2018-06-21T11:45:42.235Z,80.45
2018-06-21T11:48:11.550Z,79.97
2018-06-21T11:50:40.937Z,76.64
2018-06-21T11:53:09.376Z,73.99
2018-06-21T11:55:37.788Z,74.49
2018-06-21T11:58:06.162Z,73.26
2018-06-21T12:00:35.432Z,70.35
2018-06-21T12:03:04.817Z,68.41
2018-06-21T12:05:34.083Z,66.46
2018-06-21T12:08:03.362Z,66.17
2018-06-21T12:10:32.788Z,63.76
2018-06-21T12:13:02.065Z,63.66
2018-06-21T12:15:31.501Z,63.56
2018-06-21T12:17:59.869Z,63.33
2018-06-21T12:20:28.221Z,63.51
2018-06-21T12:22:56.584Z,61.19
2018-06-21T12:25:26.441Z,60.28
2018-06-21T12:27:55.771Z,59.31
2018-06-21T12:30:25.034Z,59.11
2018-06-21T12:32:54.424Z,59.66
2018-06-21T12:35:23.718Z,61.23
2018-06-21T12:37:53.079Z,63.77
2018-06-21T12:40:22.439Z,66.76
2018-06-21T12:42:51.635Z,68.17
2018-06-21T12:45:20.933Z,69.35
2018-06-21T12:47:50.349Z,71.96
2018-06-21T12:50:19.604Z,73.03
2018-06-21T12:52:48.909Z,75.23
2018-06-21T12:55:17.278Z,75.20
2018-06-21T12:57:45.640Z,77.96
2018-06-21T13:00:14.011Z,79.06
2018-06-21T13:02:42.375Z,81.08
2018-06-21T13:05:10.764Z,81.43
2018-06-21T13:07:39.157Z,84.60
2018-06-21T13:10:18.768Z,87.27
2018-06-21T13:13:03.847Z,92.16
2018-06-21T13:15:32.265Z,92.48
2018-06-21T13:18:01.641Z,93.41
2018-06-21T13:20:30.907Z,95.36
2018-06-21T13:22:59.255Z,94.96
2018-06-21T13:25:28.631Z,94.92
2018-06-21T13:27:57.908Z,93.65
2018-06-21T13:30:27.153Z,94.69
2018-06-21T13:32:55.509Z,92.44
2018-06-21T13:35:24.787Z,92.30
2018-06-21T13:37:53.251Z,91.44
2018-06-21T13:40:21.617Z,89.94
2018-06-21T13:42:50.894Z,87.57
2018-06-21T13:45:20.250Z,87.72
2018-06-21T13:47:48.615Z,90.49
2018-06-21T13:50:17.869Z,88.50
2018-06-21T13:52:46.234Z,87.48
2018-06-21T13:55:14.607Z,88.50
2018-06-21T13:57:43.914Z,82.15
2018-06-21T14:00:12.271Z,85.33
2018-06-21T14:02:40.683Z,86.40
2018-06-21T14:05:09.062Z,84.72
2018-06-21T14:07:38.457Z,90.94
2018-06-21T14:10:07.668Z,88.23
2018-06-21T14:12:36.932Z,86.89
2018-06-21T14:15:06.156Z,87.04
2018-06-21T14:17:35.546Z,88.40
2018-06-21T14:20:03.969Z,87.33
2018-06-21T14:22:32.330Z,88.49
2018-06-21T14:25:00.704Z,87.90
2018-06-21T14:27:29.070Z,89.03
2018-06-21T14:29:57.483Z,90.11
2018-06-21T14:32:26.820Z,85.72
2018-06-21T14:34:55.169Z,84.59
2018-06-21T14:37:23.551Z,83.89
2018-06-21T14:39:52.928Z,79.49
2018-06-21T14:42:22.166Z,77.47
2018-06-21T14:44:50.537Z,78.88
2018-06-21T14:47:19.783Z,75.81
2018-06-21T14:49:48.163Z,76.38
2018-06-21T14:52:17.630Z,74.06
2018-06-21T14:54:46.012Z,73.27
2018-06-21T14:57:15.456Z,71.41
2018-06-21T14:59:43.918Z,71.75
2018-06-21T15:02:13.195Z,67.37
2018-06-21T15:04:41.569Z,67.01
2018-06-21T15:07:09.963Z,61.77
2018-06-21T15:09:39.358Z,66.10
2018-06-21T15:12:07.712Z,54.80
2018-06-21T15:14:37.140Z,60.23
2018-06-21T15:17:05.519Z,52.51
2018-06-21T15:19:34.919Z,48.47
2018-06-21T15:22:03.315Z,51.11
2018-06-21T15:24:31.698Z,50.78
2018-06-21T15:27:00.975Z,48.15
2018-06-21T15:29:30.233Z,52.99
2018-06-21T15:31:59.433Z,46.93
2018-06-21T15:34:28.697Z,45.14
2018-06-21T15:36:57.081Z,45.42
2018-06-21T15:39:25.591Z,44.61
2018-06-21T15:41:54.007Z,47.75
2018-06-21T15:44:23.362Z,44.04
2018-06-21T15:46:52.773Z,47.29
2018-06-21T15:49:22.012Z,43.19
2018-06-21T15:51:50.413Z,45.47
2018-06-21T15:54:19.788Z,44.99
2018-06-21T15:56:48.189Z,50.61
2018-06-21T15:59:16.925Z,49.31
2018-06-21T16:01:45.297Z,51.74
2018-06-21T16:04:13.679Z,49.48
2018-06-21T16:06:42.067Z,48.20
2018-06-21T16:09:11.089Z,53.42
2018-06-21T16:11:39.985Z,51.58
2018-06-21T16:14:08.374Z,44.01
2018-06-21T16:16:36.834Z,44.09
2018-06-21T16:19:05.323Z,44.99
2018-06-21T16:21:33.731Z,46.54
2018-06-21T16:24:02.187Z,49.03
2018-06-21T16:26:30.563Z,45.78
2018-06-21T16:28:59.111Z,47.09
2018-06-21T16:31:27.465Z,46.14
2018-06-21T16:33:56.737Z,45.81
2018-06-21T16:36:25.156Z,47.92
2018-06-21T16:38:53.522Z,46.57
2018-06-21T16:41:21.886Z,45.46
2018-06-21T16:43:50.304Z,46.37
2018-06-21T16:46:18.715Z,47.35
2018-06-21T16:48:47.453Z,46.93
2018-06-21T16:51:16.873Z,46.89
2018-06-21T16:53:45.244Z,48.62
2018-06-21T16:56:13.641Z,47.00
2018-06-21T16:58:42.056Z,51.31
2018-06-21T17:01:10.490Z,47.63
2018-06-21T17:03:38.874Z,48.55
2018-06-21T17:06:07.256Z,48.50
2018-06-21T17:08:36.664Z,49.07
2018-06-21T17:11:05.144Z,49.34
2018-06-21T17:13:33.697Z,50.56
2018-06-21T17:16:02.179Z,49.82
2018-06-21T17:18:30.606Z,51.56
2018-06-21T17:20:58.971Z,47.80
2018-06-21T17:23:27.353Z,47.75
2018-06-21T17:25:55.714Z,46.26
2018-06-21T17:28:24.096Z,48.57
2018-06-21T17:30:52.467Z,47.38
2018-06-21T17:33:20.848Z,47.45
2018-06-21T17:35:49.223Z,48.31
2018-06-21T17:38:18.646Z,49.94
2018-06-21T17:40:47.057Z,49.88
2018-06-21T17:43:15.564Z,49.93
2018-06-21T17:45:44.031Z,49.73
2018-06-21T17:48:12.533Z,49.39
2018-06-21T17:50:42.119Z,49.30
2018-06-21T17:53:11.692Z,49.29
2018-06-21T17:55:41.038Z,50.31
2018-06-21T17:58:10.402Z,50.55
2018-06-21T18:00:38.769Z,51.49
2018-06-21T18:03:07.137Z,51.65
2018-06-21T18:05:35.519Z,52.32
2018-06-21T18:08:04.325Z,52.37
2018-06-21T18:10:32.657Z,51.66
2018-06-21T18:13:01.039Z,54.48
2018-06-21T18:15:29.444Z,53.43
2018-06-21T18:17:58.713Z,52.10
2018-06-21T18:20:27.110Z,52.99
2018-06-21T18:22:55.495Z,54.58
2018-06-21T18:25:24.770Z,54.58
2018-06-21T18:27:54.263Z,53.66
2018-06-21T18:30:23.670Z,53.80
2018-06-21T18:32:52.043Z,53.06
2018-06-21T18:35:21.494Z,52.61
2018-06-21T18:37:50.983Z,53.55
2018-06-21T18:40:19.363Z,54.07
2018-06-21T18:42:47.722Z,56.95
2018-06-21T18:45:17.132Z,53.25
2018-06-21T18:47:45.524Z,53.24
2018-06-21T18:50:13.997Z,54.30
2018-06-21T18:52:43.600Z,54.33
2018-06-21T18:55:12.010Z,54.05
2018-06-21T18:57:40.452Z,54.71
2018-06-21T19:00:10.102Z,54.65
2018-06-21T19:02:39.995Z,53.28
2018-06-21T19:05:08.470Z,53.67
2018-06-21T19:07:40.693Z,53.60
2018-06-21T19:10:14.446Z,53.94
2018-06-21T19:12:42.822Z,55.47
2018-06-21T19:15:11.222Z,58.73
2018-06-21T19:17:39.696Z,55.41
2018-06-21T19:20:08.066Z,55.04
2018-06-21T19:22:36.607Z,55.78
2018-06-21T19:25:04.986Z,54.67
2018-06-21T19:27:34.310Z,55.17
2018-06-21T19:30:02.760Z,54.60
2018-06-21T19:32:31.967Z,56.81
2018-06-21T19:35:01.238Z,58.54
2018-06-21T19:37:29.675Z,55.97
2018-06-21T19:39:59.083Z,56.54
2018-06-21T19:42:27.475Z,56.92
2018-06-21T19:44:55.844Z,56.81
2018-06-21T19:47:24.211Z,56.40
2018-06-21T19:49:52.570Z,56.74
2018-06-21T19:52:20.950Z,57.65
2018-06-21T19:54:49.331Z,58.01
2018-06-21T19:57:17.718Z,57.78
2018-06-21T19:59:46.135Z,57.92
2018-06-21T20:02:14.512Z,59.29
2018-06-21T20:04:42.898Z,59.03
2018-06-21T20:07:12.261Z,59.59
2018-06-21T20:09:41.523Z,60.82
2018-06-21T20:12:09.895Z,59.71
2018-06-21T20:14:38.266Z,59.79
2018-06-21T20:17:06.644Z,60.10
2018-06-21T20:19:40.378Z,59.92
2018-06-21T20:22:08.745Z,61.48
2018-06-21T20:24:37.091Z,59.91
2018-06-21T20:27:06.469Z,61.14
2018-06-21T20:29:34.857Z,61.95
2018-06-21T20:32:03.231Z,62.54
2018-06-21T20:34:31.637Z,60.77
2018-06-21T20:37:00.235Z,61.58
2018-06-21T20:39:28.681Z,61.53
2018-06-21T20:41:57.117Z,62.54
2018-06-21T20:44:25.486Z,62.17
2018-06-21T20:46:53.906Z,62.82
2018-06-21T20:49:22.466Z,62.87
2018-06-21T20:51:50.837Z,63.74
2018-06-21T20:54:19.784Z,64.71
2018-06-21T20:56:49.416Z,64.12
2018-06-21T20:59:17.888Z,65.42
2018-06-21T21:01:46.441Z,66.59
2018-06-21T21:04:15.418Z,66.46
2018-06-21T21:06:43.882Z,66.96
2018-06-21T21:09:13.876Z,68.11
2018-06-21T21:11:43.173Z,71.08
2018-06-21T21:14:12.442Z,70.98
2018-06-21T21:16:41.981Z,69.21
2018-06-21T21:19:10.313Z,68.60
2018-06-21T21:21:38.707Z,68.40
2018-06-21T21:24:07.117Z,70.50
2018-06-21T21:26:35.554Z,69.17
2018-06-21T21:29:04.916Z,68.41
2018-06-21T21:31:34.369Z,70.80
2018-06-21T21:34:04.866Z,70.88
2018-06-21T21:36:34.312Z,70.61
2018-06-21T21:39:03.964Z,71.28
2018-06-21T21:41:33.405Z,70.97
2018-06-21T21:44:02.828Z,70.69
2018-06-21T21:46:32.253Z,71.42
2018-06-21T21:49:00.689Z,73.51
2018-06-21T21:51:29.135Z,72.59
2018-06-21T21:53:57.532Z,73.32
2018-06-21T21:56:27.371Z,73.85
2018-06-21T21:58:55.800Z,72.72
2018-06-21T22:01:25.109Z,73.29
2018-06-21T22:03:53.496Z,76.82
2018-06-21T22:06:21.947Z,76.15
2018-06-21T22:08:50.348Z,76.70
2018-06-21T22:11:18.768Z,75.29
2018-06-21T22:13:47.268Z,76.34
2018-06-21T22:16:16.653Z,76.10
2018-06-21T22:18:45.101Z,76.70
2018-06-21T22:21:13.555Z,79.05
2018-06-21T22:23:41.951Z,77.96
2018-06-21T22:26:16.915Z,76.84
2018-06-21T22:28:45.330Z,78.06
2018-06-21T22:31:15.878Z,77.40
2018-06-21T22:33:44.285Z,77.14
2018-06-21T22:36:12.786Z,77.37
2018-06-21T22:38:41.194Z,75.75
2018-06-21T22:41:10.562Z,75.14
2018-06-21T22:43:39.316Z,76.15
2018-06-21T22:46:08.157Z,75.60
2018-06-21T22:48:37.081Z,75.11
2018-06-21T22:51:05.509Z,75.29
2018-06-21T22:53:33.946Z,75.24
2018-06-21T22:56:02.317Z,75.34
2018-06-21T22:58:30.771Z,75.15
2018-06-21T23:00:59.246Z,76.25
2018-06-21T23:03:27.681Z,75.05
2018-06-21T23:05:57.162Z,75.39
2018-06-21T23:08:25.615Z,75.42
2018-06-21T23:10:54.076Z,74.14
2018-06-21T23:13:22.476Z,76.45
2018-06-21T23:15:50.902Z,76.03
2018-06-21T23:18:30.646Z,75.61
2018-06-21T23:20:59.083Z,76.58
2018-06-21T23:23:28.403Z,76.25
2018-06-21T23:25:56.770Z,77.26
2018-06-21T23:28:25.163Z,76.13
2018-06-21T23:30:54.568Z,77.21
2018-06-21T23:33:24.909Z,76.29
2018-06-21T23:35:54.369Z,76.09
2018-06-21T23:38:23.845Z,76.35
2018-06-21T23:40:52.359Z,76.75
2018-06-21T23:43:21.629Z,76.38
2018-06-21T23:45:51.104Z,76.40
2018-06-21T23:48:19.559Z,77.17
2018-06-21T23:50:49.764Z,77.55
2018-06-21T23:53:19.197Z,77.97
2018-06-21T23:55:48.460Z,77.67
2018-06-21T23:58:16.848Z,80.06
